This is the latest recevied weather packets stored in our database for station/object GW1477. If no packets are shown the sender has not sent any weather packets the latest 10 day(s).
| Time | Temp. | Humidity | Pressure | Rain* | Wind** | Luminosity | Snow |
|---|---|---|---|---|---|---|---|
| 1777348490 | 11.67° C | 66% | - | 0 mm | - | - | - |
| 1777347395 | 11.67° C | 65% | - | 0 mm | - | - | - |
| 1777346688 | 11.67° C | 65% | - | 0 mm | - | - | - |
| 1777343791 | 12.78° C | 61% | - | 0 mm | - | - | - |
| 1777340930 | 13.33° C | 59% | - | 0 mm | - | - | - |
| 1777340547 | 13.33° C | 59% | - | 0 mm | - | - | - |
| 1777340207 | 13.33° C | 59% | - | 0 mm | - | - | - |
| 1777337298 | 14.44° C | 51% | - | 0 mm | - | - | - |
| 1777335890 | 15° C | 48% | - | 0 mm | - | - | - |
| 1777332627 | 16.67° C | 42% | - | 0 mm | - | - | - |
| 1777330491 | 17.78° C | 39% | - | 0 mm | - | - | - |
| 1777326861 | 20° C | 35% | - | 0 mm | - | - | - |
| 1777326170 | 20.56° C | 33% | - | 0 mm | - | - | - |
| 1777322919 | 20° C | 34% | - | 0 mm | - | - | - |
| 1777320052 | 20.56° C | 35% | - | 0 mm | - | - | - |
| 1777318247 | 20° C | 34% | - | 0 mm | - | - | - |
| 1777314287 | 20° C | 34% | - | 0 mm | - | - | - |
| 1777313213 | 20° C | 35% | - | 0 mm | - | - | - |
| 1777307091 | 16.67° C | 42% | - | 0 mm | - | - | - |
| 1777305250 | 15.56° C | 46% | - | 0 mm | - | - | - |
| 1777303133 | 14.44° C | 49% | - | 0 mm | - | - | - |
| 1777302731 | 13.89° C | 50% | - | 0 mm | - | - | - |
| 1777301295 | 13.33° C | 52% | - | 0 mm | - | - | - |
| 1777300948 | 12.78° C | 56% | - | 0 mm | - | - | - |
| 1777300590 | 12.22° C | 57% | - | 0 mm | - | - | - |
* Rain since midnight (hover to see other rain measurements)
** Current wind speed in m/s (hover to see current wind gust speed)